sensor_id;sensor_type;location;lat;lon;timestamp;temperature;humidity
1381;DHT22;684;48.342;10.096;2022-12-18T00:02:02;-3.40;33.60
1381;DHT22;684;48.342;10.096;2022-12-18T00:04:29;-3.40;33.60
1381;DHT22;684;48.342;10.096;2022-12-18T00:06:56;-3.40;33.70
1381;DHT22;684;48.342;10.096;2022-12-18T00:09:23;-3.40;33.70
1381;DHT22;684;48.342;10.096;2022-12-18T00:11:49;-3.40;33.80
1381;DHT22;684;48.342;10.096;2022-12-18T00:14:16;-3.40;33.80
1381;DHT22;684;48.342;10.096;2022-12-18T00:16:44;-3.40;33.80
1381;DHT22;684;48.342;10.096;2022-12-18T00:19:14;-3.40;33.80
1381;DHT22;684;48.342;10.096;2022-12-18T00:21:41;-3.40;33.80
1381;DHT22;684;48.342;10.096;2022-12-18T00:24:09;-3.40;33.80
1381;DHT22;684;48.342;10.096;2022-12-18T00:26:36;-3.40;33.80
1381;DHT22;684;48.342;10.096;2022-12-18T00:29:07;-3.40;33.70
1381;DHT22;684;48.342;10.096;2022-12-18T00:31:34;-3.40;33.90
1381;DHT22;684;48.342;10.096;2022-12-18T00:34:01;-3.40;33.80
1381;DHT22;684;48.342;10.096;2022-12-18T00:36:31;-3.40;33.80
1381;DHT22;684;48.342;10.096;2022-12-18T00:38:59;-2.90;34.10
1381;DHT22;684;48.342;10.096;2022-12-18T00:41:27;-3.40;33.90
1381;DHT22;684;48.342;10.096;2022-12-18T00:44:13;-3.40;33.90
1381;DHT22;684;48.342;10.096;2022-12-18T00:46:40;-3.40;33.90
1381;DHT22;684;48.342;10.096;2022-12-18T00:49:07;-3.40;33.90
1381;DHT22;684;48.342;10.096;2022-12-18T00:51:35;-3.40;33.90
1381;DHT22;684;48.342;10.096;2022-12-18T00:54:02;-3.40;34.40
1381;DHT22;684;48.342;10.096;2022-12-18T00:56:29;-3.40;33.90
1381;DHT22;684;48.342;10.096;2022-12-18T00:58:56;-3.40;33.90
1381;DHT22;684;48.342;10.096;2022-12-18T01:01:23;-3.40;33.90
1381;DHT22;684;48.342;10.096;2022-12-18T01:03:49;-3.40;34.00
1381;DHT22;684;48.342;10.096;2022-12-18T01:06:16;-3.30;34.00
1381;DHT22;684;48.342;10.096;2022-12-18T01:08:44;-3.30;33.90
1381;DHT22;684;48.342;10.096;2022-12-18T01:11:15;-3.40;33.90
1381;DHT22;684;48.342;10.096;2022-12-18T01:13:42;-3.40;33.90
1381;DHT22;684;48.342;10.096;2022-12-18T01:16:11;-3.40;33.80
1381;DHT22;684;48.342;10.096;2022-12-18T01:18:39;-3.40;33.90
1381;DHT22;684;48.342;10.096;2022-12-18T01:21:07;-3.40;33.90
1381;DHT22;684;48.342;10.096;2022-12-18T01:23:34;-3.40;34.00
1381;DHT22;684;48.342;10.096;2022-12-18T01:26:06;-3.40;34.00
1381;DHT22;684;48.342;10.096;2022-12-18T01:28:33;-3.40;34.00
1381;DHT22;684;48.342;10.096;2022-12-18T01:31:10;-3.50;34.00
1381;DHT22;684;48.342;10.096;2022-12-18T01:33:37;-3.50;34.10
1381;DHT22;684;48.342;10.096;2022-12-18T01:36:04;-3.80;33.90
1381;DHT22;684;48.342;10.096;2022-12-18T01:38:31;-3.40;34.00
1381;DHT22;684;48.342;10.096;2022-12-18T01:40:58;-3.40;34.00
1381;DHT22;684;48.342;10.096;2022-12-18T01:43:51;-3.40;34.00
1381;DHT22;684;48.342;10.096;2022-12-18T01:46:19;-3.40;34.00
1381;DHT22;684;48.342;10.096;2022-12-18T01:48:49;-3.40;33.80
1381;DHT22;684;48.342;10.096;2022-12-18T01:51:17;-3.40;33.90
1381;DHT22;684;48.342;10.096;2022-12-18T01:53:44;-3.40;33.80
1381;DHT22;684;48.342;10.096;2022-12-18T01:56:14;-3.40;33.80
1381;DHT22;684;48.342;10.096;2022-12-18T01:58:50;-3.40;33.80
1381;DHT22;684;48.342;10.096;2022-12-18T02:01:20;-3.40;33.70
1381;DHT22;684;48.342;10.096;2022-12-18T02:03:48;-3.40;33.70
1381;DHT22;684;48.342;10.096;2022-12-18T02:06:16;-3.40;33.70
1381;DHT22;684;48.342;10.096;2022-12-18T02:08:50;-3.40;33.70
1381;DHT22;684;48.342;10.096;2022-12-18T02:11:26;-3.40;33.70
1381;DHT22;684;48.342;10.096;2022-12-18T02:14:04;-3.40;33.70
1381;DHT22;684;48.342;10.096;2022-12-18T02:16:38;-3.40;33.70
1381;DHT22;684;48.342;10.096;2022-12-18T02:19:15;-3.50;33.80
1381;DHT22;684;48.342;10.096;2022-12-18T02:21:54;-3.50;33.80
1381;DHT22;684;48.342;10.096;2022-12-18T02:24:31;-3.50;33.70
1381;DHT22;684;48.342;10.096;2022-12-18T02:27:04;-3.50;33.70
1381;DHT22;684;48.342;10.096;2022-12-18T02:29:35;-3.50;33.80
1381;DHT22;684;48.342;10.096;2022-12-18T02:32:07;-3.50;33.70
1381;DHT22;684;48.342;10.096;2022-12-18T02:34:38;-3.50;33.70
1381;DHT22;684;48.342;10.096;2022-12-18T02:37:09;-3.50;33.70
1381;DHT22;684;48.342;10.096;2022-12-18T02:39:38;-3.50;33.80
1381;DHT22;684;48.342;10.096;2022-12-18T02:42:08;-3.50;33.80
1381;DHT22;684;48.342;10.096;2022-12-18T02:44:39;-3.50;33.80
1381;DHT22;684;48.342;10.096;2022-12-18T02:47:10;-3.50;33.80
1381;DHT22;684;48.342;10.096;2022-12-18T02:49:43;-3.50;33.80
1381;DHT22;684;48.342;10.096;2022-12-18T02:52:19;-3.40;33.70
1381;DHT22;684;48.342;10.096;2022-12-18T02:54:55;-3.50;33.70
1381;DHT22;684;48.342;10.096;2022-12-18T02:57:33;-3.40;33.60
1381;DHT22;684;48.342;10.096;2022-12-18T03:00:04;-3.40;33.70
1381;DHT22;684;48.342;10.096;2022-12-18T03:02:38;-3.40;33.50
1381;DHT22;684;48.342;10.096;2022-12-18T03:05:11;-3.40;33.60
1381;DHT22;684;48.342;10.096;2022-12-18T03:07:42;-3.40;33.50
1381;DHT22;684;48.342;10.096;2022-12-18T03:10:14;-3.40;33.40
1381;DHT22;684;48.342;10.096;2022-12-18T03:12:48;-3.40;33.50
1381;DHT22;684;48.342;10.096;2022-12-18T03:15:19;-3.40;33.40
1381;DHT22;684;48.342;10.096;2022-12-18T03:17:52;-3.20;33.40
1381;DHT22;684;48.342;10.096;2022-12-18T03:20:21;-3.40;33.30
1381;DHT22;684;48.342;10.096;2022-12-18T03:22:53;-3.40;33.10
1381;DHT22;684;48.342;10.096;2022-12-18T03:25:21;-3.40;33.00
1381;DHT22;684;48.342;10.096;2022-12-18T03:27:54;-3.40;33.10
1381;DHT22;684;48.342;10.096;2022-12-18T03:30:22;-3.50;33.00
1381;DHT22;684;48.342;10.096;2022-12-18T03:32:53;-3.50;32.90
1381;DHT22;684;48.342;10.096;2022-12-18T03:35:28;-3.50;32.80
1381;DHT22;684;48.342;10.096;2022-12-18T03:37:55;-3.40;32.50
1381;DHT22;684;48.342;10.096;2022-12-18T03:40:26;-3.50;32.40
1381;DHT22;684;48.342;10.096;2022-12-18T03:43:00;-3.50;32.50
1381;DHT22;684;48.342;10.096;2022-12-18T03:45:32;-3.50;32.60
1381;DHT22;684;48.342;10.096;2022-12-18T03:48:04;-3.50;33.20
1381;DHT22;684;48.342;10.096;2022-12-18T03:50:38;-3.60;32.60
1381;DHT22;684;48.342;10.096;2022-12-18T03:53:17;-3.60;32.70
1381;DHT22;684;48.342;10.096;2022-12-18T03:55:46;-3.60;32.70
1381;DHT22;684;48.342;10.096;2022-12-18T03:58:17;-3.60;32.50
1381;DHT22;684;48.342;10.096;2022-12-18T04:00:47;-3.60;32.60
1381;DHT22;684;48.342;10.096;2022-12-18T04:03:16;-3.70;32.70
1381;DHT22;684;48.342;10.096;2022-12-18T04:05:46;-3.70;32.80
1381;DHT22;684;48.342;10.096;2022-12-18T04:08:13;-3.60;32.80
1381;DHT22;684;48.342;10.096;2022-12-18T04:10:40;-3.60;32.80
1381;DHT22;684;48.342;10.096;2022-12-18T04:13:08;-3.70;32.80
1381;DHT22;684;48.342;10.096;2022-12-18T04:15:37;-3.70;32.90
1381;DHT22;684;48.342;10.096;2022-12-18T04:18:05;-3.70;32.80
1381;DHT22;684;48.342;10.096;2022-12-18T04:20:31;-3.60;32.80
1381;DHT22;684;48.342;10.096;2022-12-18T04:22:58;-3.60;32.80
1381;DHT22;684;48.342;10.096;2022-12-18T04:25:25;-3.60;32.80
1381;DHT22;684;48.342;10.096;2022-12-18T04:27:51;-3.60;32.70
1381;DHT22;684;48.342;10.096;2022-12-18T04:30:18;-3.60;32.80
1381;DHT22;684;48.342;10.096;2022-12-18T04:32:46;-3.70;32.80
1381;DHT22;684;48.342;10.096;2022-12-18T04:35:13;-3.60;32.80
1381;DHT22;684;48.342;10.096;2022-12-18T04:37:40;-3.60;32.70
1381;DHT22;684;48.342;10.096;2022-12-18T04:40:07;-3.60;32.60
1381;DHT22;684;48.342;10.096;2022-12-18T04:42:34;-3.60;32.60
1381;DHT22;684;48.342;10.096;2022-12-18T04:45:01;-3.60;32.70
1381;DHT22;684;48.342;10.096;2022-12-18T04:47:28;-3.70;32.70
1381;DHT22;684;48.342;10.096;2022-12-18T04:49:56;-3.70;32.70
1381;DHT22;684;48.342;10.096;2022-12-18T04:52:23;-3.70;32.70
1381;DHT22;684;48.342;10.096;2022-12-18T04:54:49;-3.60;32.60
1381;DHT22;684;48.342;10.096;2022-12-18T04:57:16;-3.60;32.60
1381;DHT22;684;48.342;10.096;2022-12-18T04:59:44;-3.60;32.60
1381;DHT22;684;48.342;10.096;2022-12-18T05:02:11;-3.60;32.60
1381;DHT22;684;48.342;10.096;2022-12-18T05:04:38;-3.70;32.70
1381;DHT22;684;48.342;10.096;2022-12-18T05:07:07;-3.70;32.70
1381;DHT22;684;48.342;10.096;2022-12-18T05:09:33;-3.70;32.80
1381;DHT22;684;48.342;10.096;2022-12-18T05:12:00;-3.70;32.80
1381;DHT22;684;48.342;10.096;2022-12-18T05:14:27;-3.60;32.80
1381;DHT22;684;48.342;10.096;2022-12-18T05:16:54;-3.60;32.80
1381;DHT22;684;48.342;10.096;2022-12-18T05:19:22;-3.60;32.70
1381;DHT22;684;48.342;10.096;2022-12-18T05:21:49;-3.60;32.70
1381;DHT22;684;48.342;10.096;2022-12-18T05:24:17;-3.60;32.70
1381;DHT22;684;48.342;10.096;2022-12-18T05:26:44;-3.60;32.80
1381;DHT22;684;48.342;10.096;2022-12-18T05:29:10;-3.60;32.80
1381;DHT22;684;48.342;10.096;2022-12-18T05:31:38;-3.60;32.80
1381;DHT22;684;48.342;10.096;2022-12-18T05:34:04;-3.60;32.80
1381;DHT22;684;48.342;10.096;2022-12-18T05:36:31;-3.60;32.80
1381;DHT22;684;48.342;10.096;2022-12-18T05:38:58;-3.60;32.80
1381;DHT22;684;48.342;10.096;2022-12-18T05:41:27;-3.60;32.70
1381;DHT22;684;48.342;10.096;2022-12-18T05:43:54;-3.60;32.80
1381;DHT22;684;48.342;10.096;2022-12-18T05:46:21;-3.60;32.80
1381;DHT22;684;48.342;10.096;2022-12-18T05:48:51;-3.60;32.90
1381;DHT22;684;48.342;10.096;2022-12-18T05:51:20;-3.30;33.10
1381;DHT22;684;48.342;10.096;2022-12-18T05:53:48;-3.60;33.00
1381;DHT22;684;48.342;10.096;2022-12-18T05:56:17;-3.60;33.10
1381;DHT22;684;48.342;10.096;2022-12-18T05:58:46;-3.60;33.00
1381;DHT22;684;48.342;10.096;2022-12-18T06:01:16;-3.60;33.10
1381;DHT22;684;48.342;10.096;2022-12-18T06:03:43;-3.60;33.00
1381;DHT22;684;48.342;10.096;2022-12-18T06:06:14;-3.60;33.00
1381;DHT22;684;48.342;10.096;2022-12-18T06:08:41;-3.60;33.50
1381;DHT22;684;48.342;10.096;2022-12-18T06:11:08;-3.60;33.00
1381;DHT22;684;48.342;10.096;2022-12-18T06:13:35;-3.60;33.10
1381;DHT22;684;48.342;10.096;2022-12-18T06:16:04;-3.60;33.10
1381;DHT22;684;48.342;10.096;2022-12-18T06:18:32;-3.60;33.10
1381;DHT22;684;48.342;10.096;2022-12-18T06:20:59;-3.40;33.30
1381;DHT22;684;48.342;10.096;2022-12-18T06:23:27;-3.70;33.30
1381;DHT22;684;48.342;10.096;2022-12-18T06:25:54;-3.60;33.30
1381;DHT22;684;48.342;10.096;2022-12-18T06:28:21;-3.70;33.30
1381;DHT22;684;48.342;10.096;2022-12-18T06:30:48;-3.60;33.40
1381;DHT22;684;48.342;10.096;2022-12-18T06:33:17;-3.70;33.40
1381;DHT22;684;48.342;10.096;2022-12-18T06:35:44;-3.70;33.40
1381;DHT22;684;48.342;10.096;2022-12-18T06:38:11;-3.70;33.50
1381;DHT22;684;48.342;10.096;2022-12-18T06:40:38;-3.50;33.60
1381;DHT22;684;48.342;10.096;2022-12-18T06:43:05;-3.60;33.50
1381;DHT22;684;48.342;10.096;2022-12-18T06:45:32;-3.50;33.50
1381;DHT22;684;48.342;10.096;2022-12-18T06:47:59;-3.50;34.20
1381;DHT22;684;48.342;10.096;2022-12-18T06:50:27;-3.50;33.60
1381;DHT22;684;48.342;10.096;2022-12-18T06:52:54;-3.50;33.60
1381;DHT22;684;48.342;10.096;2022-12-18T06:55:21;-3.50;33.60
1381;DHT22;684;48.342;10.096;2022-12-18T06:57:48;-3.50;33.60
1381;DHT22;684;48.342;10.096;2022-12-18T07:00:15;-3.50;33.50
1381;DHT22;684;48.342;10.096;2022-12-18T07:02:42;-3.50;33.50
1381;DHT22;684;48.342;10.096;2022-12-18T07:05:09;-3.50;33.50
1381;DHT22;684;48.342;10.096;2022-12-18T07:07:37;-3.50;33.50
1381;DHT22;684;48.342;10.096;2022-12-18T07:10:04;-3.50;33.50
1381;DHT22;684;48.342;10.096;2022-12-18T07:12:31;-3.50;33.50
1381;DHT22;684;48.342;10.096;2022-12-18T07:14:58;-3.50;33.60
1381;DHT22;684;48.342;10.096;2022-12-18T07:17:25;-3.40;33.60
1381;DHT22;684;48.342;10.096;2022-12-18T07:19:51;-3.40;33.60
1381;DHT22;684;48.342;10.096;2022-12-18T07:22:18;-3.40;33.60
1381;DHT22;684;48.342;10.096;2022-12-18T07:24:46;-3.30;33.60
1381;DHT22;684;48.342;10.096;2022-12-18T07:27:13;-3.30;33.70
1381;DHT22;684;48.342;10.096;2022-12-18T07:29:40;-3.30;33.60
1381;DHT22;684;48.342;10.096;2022-12-18T07:32:06;-3.30;33.50
1381;DHT22;684;48.342;10.096;2022-12-18T07:34:33;-3.20;33.50
1381;DHT22;684;48.342;10.096;2022-12-18T07:37:00;-3.20;33.40
1381;DHT22;684;48.342;10.096;2022-12-18T07:39:27;-3.20;33.40
1381;DHT22;684;48.342;10.096;2022-12-18T07:41:55;-3.20;33.40
1381;DHT22;684;48.342;10.096;2022-12-18T07:44:40;-3.20;33.50
1381;DHT22;684;48.342;10.096;2022-12-18T07:47:06;-3.10;33.50
1381;DHT22;684;48.342;10.096;2022-12-18T07:49:33;-3.10;33.50
1381;DHT22;684;48.342;10.096;2022-12-18T07:52:00;-3.10;33.50
1381;DHT22;684;48.342;10.096;2022-12-18T07:54:27;-3.00;33.50
1381;DHT22;684;48.342;10.096;2022-12-18T07:56:56;-2.90;33.70
1381;DHT22;684;48.342;10.096;2022-12-18T07:59:22;-2.90;33.80
1381;DHT22;684;48.342;10.096;2022-12-18T08:01:49;-2.80;33.70
1381;DHT22;684;48.342;10.096;2022-12-18T08:04:16;-2.80;33.70
1381;DHT22;684;48.342;10.096;2022-12-18T08:06:43;-2.70;33.80
1381;DHT22;684;48.342;10.096;2022-12-18T08:09:10;-2.60;33.80
1381;DHT22;684;48.342;10.096;2022-12-18T08:11:36;-2.60;33.70
1381;DHT22;684;48.342;10.096;2022-12-18T08:14:05;-2.50;33.60
1381;DHT22;684;48.342;10.096;2022-12-18T08:16:31;-2.50;33.60
1381;DHT22;684;48.342;10.096;2022-12-18T08:18:58;-2.40;33.50
1381;DHT22;684;48.342;10.096;2022-12-18T08:21:27;-2.40;33.30
1381;DHT22;684;48.342;10.096;2022-12-18T08:23:55;-2.40;33.20
1381;DHT22;684;48.342;10.096;2022-12-18T08:26:24;-2.40;33.10
1381;DHT22;684;48.342;10.096;2022-12-18T08:28:51;-2.40;33.10
1381;DHT22;684;48.342;10.096;2022-12-18T08:31:21;-2.30;33.10
1381;DHT22;684;48.342;10.096;2022-12-18T08:33:49;-2.30;33.00
1381;DHT22;684;48.342;10.096;2022-12-18T08:36:16;-2.30;33.20
1381;DHT22;684;48.342;10.096;2022-12-18T08:38:43;-2.20;32.90
1381;DHT22;684;48.342;10.096;2022-12-18T08:41:11;-2.20;32.90
1381;DHT22;684;48.342;10.096;2022-12-18T08:43:38;-2.10;32.80
1381;DHT22;684;48.342;10.096;2022-12-18T08:46:26;-2.10;32.80
1381;DHT22;684;48.342;10.096;2022-12-18T08:48:54;-2.00;32.80
1381;DHT22;684;48.342;10.096;2022-12-18T08:51:21;-2.00;32.80
1381;DHT22;684;48.342;10.096;2022-12-18T08:53:48;-2.00;32.80
1381;DHT22;684;48.342;10.096;2022-12-18T08:56:15;-2.00;32.70
1381;DHT22;684;48.342;10.096;2022-12-18T08:58:42;-1.90;32.70
1381;DHT22;684;48.342;10.096;2022-12-18T09:01:10;-2.00;32.50
1381;DHT22;684;48.342;10.096;2022-12-18T09:03:39;-2.00;32.70
1381;DHT22;684;48.342;10.096;2022-12-18T09:06:06;-1.90;32.80
1381;DHT22;684;48.342;10.096;2022-12-18T09:08:33;-1.90;32.90
1381;DHT22;684;48.342;10.096;2022-12-18T09:11:00;-1.90;32.80
1381;DHT22;684;48.342;10.096;2022-12-18T09:13:26;-1.90;32.80
1381;DHT22;684;48.342;10.096;2022-12-18T09:15:55;-1.80;32.80
1381;DHT22;684;48.342;10.096;2022-12-18T09:18:23;-1.80;32.70
1381;DHT22;684;48.342;10.096;2022-12-18T09:20:51;-1.70;32.70
1381;DHT22;684;48.342;10.096;2022-12-18T09:23:18;-1.70;32.70
1381;DHT22;684;48.342;10.096;2022-12-18T09:25:45;-1.60;32.80
1381;DHT22;684;48.342;10.096;2022-12-18T09:28:13;-1.50;32.90
1381;DHT22;684;48.342;10.096;2022-12-18T09:30:42;-1.60;32.90
1381;DHT22;684;48.342;10.096;2022-12-18T09:33:09;-1.50;32.90
1381;DHT22;684;48.342;10.096;2022-12-18T09:35:40;-1.50;32.90
1381;DHT22;684;48.342;10.096;2022-12-18T09:38:09;-1.50;33.00
1381;DHT22;684;48.342;10.096;2022-12-18T09:40:41;-1.40;32.90
1381;DHT22;684;48.342;10.096;2022-12-18T09:43:14;-1.40;33.40
1381;DHT22;684;48.342;10.096;2022-12-18T09:45:43;-1.30;32.70
1381;DHT22;684;48.342;10.096;2022-12-18T09:48:17;-1.30;32.40
1381;DHT22;684;48.342;10.096;2022-12-18T09:50:46;-1.30;32.00
1381;DHT22;684;48.342;10.096;2022-12-18T09:53:19;-1.20;32.00
1381;DHT22;684;48.342;10.096;2022-12-18T09:55:48;-1.30;32.00
1381;DHT22;684;48.342;10.096;2022-12-18T09:58:19;-1.30;32.20
1381;DHT22;684;48.342;10.096;2022-12-18T10:00:48;-1.40;32.30
1381;DHT22;684;48.342;10.096;2022-12-18T10:03:17;-1.40;32.60
1381;DHT22;684;48.342;10.096;2022-12-18T10:05:54;-1.40;32.90
1381;DHT22;684;48.342;10.096;2022-12-18T10:08:34;-1.40;33.20
1381;DHT22;684;48.342;10.096;2022-12-18T10:11:26;-1.50;33.30
1381;DHT22;684;48.342;10.096;2022-12-18T10:13:57;-1.60;33.50
1381;DHT22;684;48.342;10.096;2022-12-18T10:16:33;-1.60;33.50
1381;DHT22;684;48.342;10.096;2022-12-18T10:19:16;-1.60;33.60
1381;DHT22;684;48.342;10.096;2022-12-18T10:21:51;-1.70;33.90
1381;DHT22;684;48.342;10.096;2022-12-18T10:24:26;-1.60;33.90
1381;DHT22;684;48.342;10.096;2022-12-18T10:26:58;-1.60;33.80
1381;DHT22;684;48.342;10.096;2022-12-18T10:29:27;-1.50;33.90
1381;DHT22;684;48.342;10.096;2022-12-18T10:31:54;-1.50;33.80
1381;DHT22;684;48.342;10.096;2022-12-18T10:34:20;-1.50;33.60
1381;DHT22;684;48.342;10.096;2022-12-18T10:36:47;-1.50;33.70
1381;DHT22;684;48.342;10.096;2022-12-18T10:39:16;-1.40;33.20
1381;DHT22;684;48.342;10.096;2022-12-18T10:41:44;-1.40;33.30
1381;DHT22;684;48.342;10.096;2022-12-18T10:44:16;-1.50;33.60
1381;DHT22;684;48.342;10.096;2022-12-18T10:46:44;-1.50;34.10
1381;DHT22;684;48.342;10.096;2022-12-18T10:49:23;-1.40;33.80
1381;DHT22;684;48.342;10.096;2022-12-18T10:51:51;-1.30;33.90
1381;DHT22;684;48.342;10.096;2022-12-18T10:54:30;-1.30;33.80
1381;DHT22;684;48.342;10.096;2022-12-18T10:57:28;-1.20;33.90
1381;DHT22;684;48.342;10.096;2022-12-18T10:59:58;-1.10;33.30
1381;DHT22;684;48.342;10.096;2022-12-18T11:02:27;-1.00;32.60
1381;DHT22;684;48.342;10.096;2022-12-18T11:04:55;-1.10;32.40
1381;DHT22;684;48.342;10.096;2022-12-18T11:07:21;-1.00;32.50
1381;DHT22;684;48.342;10.096;2022-12-18T11:10:00;-1.00;32.20
1381;DHT22;684;48.342;10.096;2022-12-18T11:12:29;-1.00;32.20
1381;DHT22;684;48.342;10.096;2022-12-18T11:14:58;-1.00;31.90
1381;DHT22;684;48.342;10.096;2022-12-18T11:17:28;-1.10;32.20
1381;DHT22;684;48.342;10.096;2022-12-18T11:19:57;-1.10;32.30
1381;DHT22;684;48.342;10.096;2022-12-18T11:22:26;-1.00;32.50
1381;DHT22;684;48.342;10.096;2022-12-18T11:24:56;-1.00;33.10
1381;DHT22;684;48.342;10.096;2022-12-18T11:27:24;-1.00;32.60
1381;DHT22;684;48.342;10.096;2022-12-18T11:29:52;-0.90;32.00
1381;DHT22;684;48.342;10.096;2022-12-18T11:32:32;-1.00;31.70
1381;DHT22;684;48.342;10.096;2022-12-18T11:35:04;-1.00;32.20
1381;DHT22;684;48.342;10.096;2022-12-18T11:37:36;-0.90;32.40
1381;DHT22;684;48.342;10.096;2022-12-18T11:40:09;-0.90;32.30
1381;DHT22;684;48.342;10.096;2022-12-18T11:42:41;-0.90;32.00
1381;DHT22;684;48.342;10.096;2022-12-18T11:45:25;-0.80;32.10
1381;DHT22;684;48.342;10.096;2022-12-18T11:47:57;-0.80;32.00
1381;DHT22;684;48.342;10.096;2022-12-18T11:50:28;-0.70;31.40
1381;DHT22;684;48.342;10.096;2022-12-18T11:52:56;-0.70;31.50
1381;DHT22;684;48.342;10.096;2022-12-18T11:55:31;-0.70;31.60
1381;DHT22;684;48.342;10.096;2022-12-18T11:58:07;-0.70;31.70
1381;DHT22;684;48.342;10.096;2022-12-18T12:00:43;-0.70;31.60
1381;DHT22;684;48.342;10.096;2022-12-18T12:03:42;-0.60;31.30
1381;DHT22;684;48.342;10.096;2022-12-18T12:06:18;-0.60;31.10
1381;DHT22;684;48.342;10.096;2022-12-18T12:08:57;-0.60;30.40
1381;DHT22;684;48.342;10.096;2022-12-18T12:11:35;-0.60;30.80
1381;DHT22;684;48.342;10.096;2022-12-18T12:14:21;-0.60;31.60
1381;DHT22;684;48.342;10.096;2022-12-18T12:16:58;-0.60;30.40
1381;DHT22;684;48.342;10.096;2022-12-18T12:19:35;-0.60;30.50
1381;DHT22;684;48.342;10.096;2022-12-18T12:22:09;-0.70;30.60
1381;DHT22;684;48.342;10.096;2022-12-18T12:24:46;-0.80;30.60
1381;DHT22;684;48.342;10.096;2022-12-18T12:27:20;-0.80;31.00
1381;DHT22;684;48.342;10.096;2022-12-18T12:29:59;-0.80;31.00
1381;DHT22;684;48.342;10.096;2022-12-18T12:32:39;-0.90;31.00
1381;DHT22;684;48.342;10.096;2022-12-18T12:35:16;-1.00;31.90
1381;DHT22;684;48.342;10.096;2022-12-18T12:37:49;-1.10;31.80
1381;DHT22;684;48.342;10.096;2022-12-18T12:40:23;-1.10;32.00
1381;DHT22;684;48.342;10.096;2022-12-18T12:42:55;-1.20;32.10
1381;DHT22;684;48.342;10.096;2022-12-18T12:45:44;-1.20;32.40
1381;DHT22;684;48.342;10.096;2022-12-18T12:48:22;-1.20;32.30
1381;DHT22;684;48.342;10.096;2022-12-18T12:50:50;-1.20;32.60
1381;DHT22;684;48.342;10.096;2022-12-18T12:53:23;-1.10;32.50
1381;DHT22;684;48.342;10.096;2022-12-18T12:55:52;-1.20;32.50
1381;DHT22;684;48.342;10.096;2022-12-18T12:58:28;-1.10;32.60
1381;DHT22;684;48.342;10.096;2022-12-18T13:01:05;-1.10;33.30
1381;DHT22;684;48.342;10.096;2022-12-18T13:03:43;-1.20;32.80
1381;DHT22;684;48.342;10.096;2022-12-18T13:06:16;-1.20;32.60
1381;DHT22;684;48.342;10.096;2022-12-18T13:08:54;-1.20;32.80
1381;DHT22;684;48.342;10.096;2022-12-18T13:11:39;-1.20;32.70
1381;DHT22;684;48.342;10.096;2022-12-18T13:14:27;-1.20;32.60
1381;DHT22;684;48.342;10.096;2022-12-18T13:17:24;-1.20;33.50
1381;DHT22;684;48.342;10.096;2022-12-18T13:20:09;-1.20;32.90
1381;DHT22;684;48.342;10.096;2022-12-18T13:22:38;-1.20;32.80
1381;DHT22;684;48.342;10.096;2022-12-18T13:25:33;-1.30;33.00
1381;DHT22;684;48.342;10.096;2022-12-18T13:28:06;-1.20;32.90
1381;DHT22;684;48.342;10.096;2022-12-18T13:30:57;-1.30;33.10
1381;DHT22;684;48.342;10.096;2022-12-18T13:33:38;-1.30;33.10
1381;DHT22;684;48.342;10.096;2022-12-18T13:36:23;-1.40;33.20
1381;DHT22;684;48.342;10.096;2022-12-18T13:39:10;-1.30;33.40
1381;DHT22;684;48.342;10.096;2022-12-18T13:41:38;-1.40;33.30
1381;DHT22;684;48.342;10.096;2022-12-18T13:44:11;-1.40;33.40
1381;DHT22;684;48.342;10.096;2022-12-18T13:46:43;-1.40;33.40
1381;DHT22;684;48.342;10.096;2022-12-18T13:49:22;-1.40;33.70
1381;DHT22;684;48.342;10.096;2022-12-18T13:51:52;-1.50;33.50
1381;DHT22;684;48.342;10.096;2022-12-18T13:54:22;-1.50;33.40
1381;DHT22;684;48.342;10.096;2022-12-18T13:56:50;-1.50;33.60
1381;DHT22;684;48.342;10.096;2022-12-18T13:59:20;-1.50;33.60
1381;DHT22;684;48.342;10.096;2022-12-18T14:01:52;-1.50;33.70
1381;DHT22;684;48.342;10.096;2022-12-18T14:04:21;-1.50;33.90
1381;DHT22;684;48.342;10.096;2022-12-18T14:06:55;-1.60;33.80
1381;DHT22;684;48.342;10.096;2022-12-18T14:09:27;-1.70;34.10
1381;DHT22;684;48.342;10.096;2022-12-18T14:11:55;-1.70;34.50
1381;DHT22;684;48.342;10.096;2022-12-18T14:14:45;-1.70;34.60
1381;DHT22;684;48.342;10.096;2022-12-18T14:17:14;-1.70;34.70
1381;DHT22;684;48.342;10.096;2022-12-18T14:19:43;-1.70;34.70
1381;DHT22;684;48.342;10.096;2022-12-18T14:22:19;-1.60;34.50
1381;DHT22;684;48.342;10.096;2022-12-18T14:24:47;-1.70;34.20
1381;DHT22;684;48.342;10.096;2022-12-18T14:27:22;-1.70;34.00
1381;DHT22;684;48.342;10.096;2022-12-18T14:29:49;-1.70;34.30
1381;DHT22;684;48.342;10.096;2022-12-18T14:32:17;-1.80;34.40
1381;DHT22;684;48.342;10.096;2022-12-18T14:34:46;-1.80;34.40
1381;DHT22;684;48.342;10.096;2022-12-18T14:37:14;-1.80;34.50
1381;DHT22;684;48.342;10.096;2022-12-18T14:39:54;-1.80;34.80
1381;DHT22;684;48.342;10.096;2022-12-18T14:42:22;-1.90;35.00
1381;DHT22;684;48.342;10.096;2022-12-18T14:44:49;-1.90;34.90
1381;DHT22;684;48.342;10.096;2022-12-18T14:47:24;-1.90;34.80
1381;DHT22;684;48.342;10.096;2022-12-18T14:49:51;-2.00;35.00
1381;DHT22;684;48.342;10.096;2022-12-18T14:52:25;-2.00;35.10
1381;DHT22;684;48.342;10.096;2022-12-18T14:54:54;-2.00;35.10
1381;DHT22;684;48.342;10.096;2022-12-18T14:57:22;-2.00;35.10
1381;DHT22;684;48.342;10.096;2022-12-18T14:59:50;-2.00;34.90
1381;DHT22;684;48.342;10.096;2022-12-18T15:02:20;-2.00;35.10
1381;DHT22;684;48.342;10.096;2022-12-18T15:05:00;-2.10;35.10
1381;DHT22;684;48.342;10.096;2022-12-18T15:07:27;-2.00;34.90
1381;DHT22;684;48.342;10.096;2022-12-18T15:10:09;-2.10;34.70
1381;DHT22;684;48.342;10.096;2022-12-18T15:12:39;-2.20;34.90
1381;DHT22;684;48.342;10.096;2022-12-18T15:18:12;-2.20;35.30
1381;DHT22;684;48.342;10.096;2022-12-18T15:20:43;-2.20;35.30
1381;DHT22;684;48.342;10.096;2022-12-18T15:23:14;-2.30;35.30
1381;DHT22;684;48.342;10.096;2022-12-18T15:25:43;-2.30;35.40
1381;DHT22;684;48.342;10.096;2022-12-18T15:28:19;-2.40;35.30
1381;DHT22;684;48.342;10.096;2022-12-18T15:31:17;-2.40;35.60
1381;DHT22;684;48.342;10.096;2022-12-18T15:34:01;-2.40;36.00
1381;DHT22;684;48.342;10.096;2022-12-18T15:36:29;-2.50;35.90
1381;DHT22;684;48.342;10.096;2022-12-18T15:38:57;-2.50;36.00
1381;DHT22;684;48.342;10.096;2022-12-18T15:41:26;-2.50;36.00
1381;DHT22;684;48.342;10.096;2022-12-18T15:43:53;-2.60;36.10
1381;DHT22;684;48.342;10.096;2022-12-18T15:46:21;-2.60;36.10
1381;DHT22;684;48.342;10.096;2022-12-18T15:48:49;-2.60;36.00
1381;DHT22;684;48.342;10.096;2022-12-18T15:51:19;-2.60;36.00
1381;DHT22;684;48.342;10.096;2022-12-18T15:53:47;-2.70;36.30
1381;DHT22;684;48.342;10.096;2022-12-18T15:56:16;-2.70;36.30
1381;DHT22;684;48.342;10.096;2022-12-18T15:59:02;-2.80;36.40
1381;DHT22;684;48.342;10.096;2022-12-18T16:01:30;-2.80;36.60
1381;DHT22;684;48.342;10.096;2022-12-18T16:03:57;-2.90;36.80
1381;DHT22;684;48.342;10.096;2022-12-18T16:06:24;-2.90;36.80
1381;DHT22;684;48.342;10.096;2022-12-18T16:08:51;-2.90;37.00
1381;DHT22;684;48.342;10.096;2022-12-18T16:11:22;-2.90;36.80
1381;DHT22;684;48.342;10.096;2022-12-18T16:14:09;-3.00;36.90
1381;DHT22;684;48.342;10.096;2022-12-18T16:16:39;-3.00;37.00
1381;DHT22;684;48.342;10.096;2022-12-18T16:19:06;-3.00;37.10
1381;DHT22;684;48.342;10.096;2022-12-18T16:21:32;-3.00;37.80
1381;DHT22;684;48.342;10.096;2022-12-18T16:23:59;-3.00;37.40
1381;DHT22;684;48.342;10.096;2022-12-18T16:26:26;-3.00;37.30
1381;DHT22;684;48.342;10.096;2022-12-18T16:28:53;-3.10;37.40